Hiles, WI

8:16 PM CDT on August 22, 2014 (GMT -0500)
Argonne, WI | Change Station
CLOSE
Current Station
Personal Weather Station
Location: Argonne, WI
Elevation: 1620 ft
Nearby Weather Stations

Elev 1620 ft 45.65 °N, 88.86 °W | Updated 1 minute ago

Overcast
Overcast
69.5 °F
Feels Like 69.5 °F
N
0.0
Wind Variable Wind from SSE
Gusts 1.0 mph

Today
High -- | Low -- °F
--% Chance of Precip.
Yesterday
High -- | Low -- °F
Precip. -- in
6:04 AM 7:51 PM
Waning Crescent, 6% visible
Pressure 30.01 in
Visibility 2.0 miles
Clouds Overcast 400 ft
Dew Point 69 °F
Humidity 98%
Rainfall 0.07 in
Snow Depth Not available.
UV 0 out of 12
Pollen 7.00 out of 12
Air Quality Not available.
Flu Activity Not available.
METAR KEGV 230055Z AUTO 00000KT 2SM BR OVC004 21/21 A3001 RMK AO2 T02100210

More Conditions Fewer Conditions

Pressure 30.01 in
Visibility 2.0 miles
Clouds Overcast 400 ft
Dew Point 69 °F
Humidity 98%
Rainfall 0.07 in
Snow Depth Not available.
UV 0 out of 12
Pollen 7.00 out of 12
Air Quality Not available.
Flu Activity Not available.
METAR KEGV 230055Z AUTO 00000KT 2SM BR OVC004 21/21 A3001 RMK AO2 T02100210

More Conditions Fewer Conditions

10-Day Weather Forecast

Almanac

Astronomy

Aug. 22, 2014 Rise Set
Actual Time 6:04 AM CDT 7:51 PM CDT
Civil Twilight 5:32 AM CDT 8:23 PM CDT
Nautical Twilight 4:53 AM CDT 9:01 PM CDT
Astronomical Twilight 4:11 AM CDT 9:43 PM CDT
Moon 3:22 AM CDT (8/22) 6:02 PM CDT (8/22)
Length of Visible Light 14h 50m
Length of Day
13h 47m
Tomorrow will be 3m 0s shorter.
Waning Crescent, 6% of the Moon is Illuminated
Today
Waning Crescent
Aug 25
New
Sep 2
First Quarter
Sep 8
Full
Sep 15
Last Quarter

Today's Extremes

State Highs State Lows

Community

WunderPhotos

Upload Photos

1,746,337 photos uploaded!

WunderBlogs® & News

Nearby

Snow Depth

Station Depth Elevation
No new snow has been reported.

Earthquake Activity

City Distance Mag. Time & Date
No recent earthquake activity has been reported nearby.
Minimum magnitude displayed is 2.5.

Coastal Water Temperatures

Place Temperature
No Stations Reporting

Nearby Weather Stations